This is the latest recevied weather packets stored in our database for station/object VE6CWS-7. If no packets are shown the sender has not sent any weather packets the latest 10 day(s).
| Time | Temp. | Humidity | Pressure | Rain* | Wind** | Luminosity | Snow |
|---|---|---|---|---|---|---|---|
| 1778151703 | 6.67° C | 68% | 1009.1 hPa | 0 mm | - | - | - |
| 1778150750 | 7.22° C | 64% | 1008.9 hPa | 0 mm | - | - | - |
| 1778149850 | 7.78° C | 64% | 1008.8 hPa | 0 mm | - | - | - |
| 1778148948 | 6.67° C | 68% | 1008.8 hPa | 0 mm | - | - | - |
| 1778148105 | 7.22° C | 66% | 1008.8 hPa | 0 mm | - | - | - |
| 1778147138 | 7.78° C | 61% | 1008.9 hPa | 0 mm | - | - | - |
| 1778146235 | 7.78° C | 61% | 1008.6 hPa | 0 mm | - | - | - |
| 1778145341 | 8.33° C | 61% | 1008.4 hPa | 0 mm | - | - | - |
| 1778144489 | 8.33° C | 61% | 1008.6 hPa | 0 mm | - | - | - |
| 1778143554 | 8.89° C | 57% | 1008.9 hPa | 0 mm | - | - | - |
| 1778142641 | 9.44° C | 57% | 1009 hPa | 0 mm | - | - | - |
| 1778141743 | 9.44° C | 53% | 1009.1 hPa | 0 mm | - | - | - |
| 1778140897 | 9.44° C | 56% | 1009.4 hPa | 0 mm | - | - | - |
| 1778139949 | 10° C | 54% | 1009.4 hPa | 0 mm | - | - | - |
| 1778139051 | 10° C | 53% | 1009.6 hPa | 0 mm | - | - | - |
| 1778138144 | 10° C | 52% | 1009.8 hPa | 0 mm | - | - | - |
| 1778137301 | 10.56° C | 48% | 1009.7 hPa | 0 mm | - | - | - |
| 1778136359 | 10.56° C | 47% | 1009.4 hPa | 0 mm | - | - | - |
| 1778135457 | 10.56° C | 45% | 1009.2 hPa | 0 mm | - | - | - |
| 1778134551 | 10.56° C | 47% | 1008.9 hPa | 0 mm | - | - | - |
| 1778133707 | 10.56° C | 45% | 1008.5 hPa | 0 mm | - | - | - |
| 1778132738 | 11.11° C | 42% | 1008.4 hPa | 0 mm | - | - | - |
| 1778131834 | 11.11° C | 41% | 1008.5 hPa | 0 mm | - | - | - |
| 1778130933 | 10.56° C | 47% | 1008.1 hPa | 0 mm | - | - | - |
| 1778130091 | 10.56° C | 47% | 1008 hPa | 0 mm | - | - | - |
* Rain latest hour (hover to see other rain measurements)
** Current wind speed in m/s (hover to see current wind gust speed)